Time;durP1;ratioP1;P1;durP2;ratioP2;P2;SDS_P1;SDS_P2;PMS_P1;PMS_P2;Temp;Humidity;BMP_temperature;BMP_pressure;BME280_temperature;BME280_humidity;BME280_pressure;Samples;Min_cycle;Max_cycle;Signal;HPM_P1;HPM_P2
2023/06/06 00:00:39;;;;;;;;;4.75;3.75;;;;;19.45;61.28;101199.56;146617;642;46016;-65
2023/06/06 00:03:45;;;;;;;;;4.67;4.67;;;;;19.37;60.93;101204.62;146622;610;47010;-66
2023/06/06 00:06:54;;;;;;;;;3.50;3.50;;;;;19.26;60.85;101206.13;146611;604;47014;-67
2023/06/06 00:09:49;;;;;;;;;4.33;4.33;;;;;19.23;61.57;101204.31;146621;599;46020;-66
2023/06/06 00:13:05;;;;;;;;;5.33;4.00;;;;;19.19;61.46;101202.47;146615;578;46017;-66
2023/06/06 00:16:01;;;;;;;;;4.00;4.00;;;;;19.10;61.23;101204.88;146621;610;46020;-66
2023/06/06 00:19:10;;;;;;;;;4.00;3.00;;;;;19.07;61.41;101205.69;146616;575;46016;-66
2023/06/06 00:22:06;;;;;;;;;5.00;5.00;;;;;19.03;61.21;101198.56;146622;600;46010;-66
2023/06/06 00:25:03;;;;;;;;;4.75;4.75;;;;;18.99;61.11;101201.09;146617;688;46016;-67
2023/06/06 00:28:11;;;;;;;;;4.00;4.00;;;;;16.25;61.00;100722.66;146616;625;46012;-66
2023/06/06 00:31:22;;;;;;;;;6.00;5.00;;;;;18.98;61.13;101194.06;146619;570;47012;-67
2023/06/06 00:34:21;;;;;;;;;5.75;5.00;;;;;18.92;61.42;101194.81;146616;566;47021;-67
2023/06/06 00:37:29;;;;;;;;;6.00;6.00;;;;;18.87;61.81;101205.19;146617;611;46016;-67
2023/06/06 00:40:27;;;;;;;;;3.67;3.67;;;;;18.79;60.99;101197.97;146621;574;46021;-67
2023/06/06 00:43:29;;;;;;;;;3.50;3.00;;;;;18.72;62.42;101198.63;146619;593;46016;-66
2023/06/06 00:46:29;;;;;;;;;3.50;3.00;;;;;18.70;61.98;101196.84;146620;570;46020;-66
2023/06/06 00:49:30;;;;;;;;;4.50;4.00;;;;;18.69;62.21;101210.84;146618;623;46017;-66
2023/06/06 00:52:51;;;;;;;;;6.75;5.00;;;;;18.64;62.37;101211.56;146620;564;46012;-66
2023/06/06 00:55:56;;;;;;;;;7.25;4.25;;;;;18.56;62.78;101215.72;146618;594;46013;-67
2023/06/06 00:59:20;;;;;;;;;3.25;3.25;;;;;18.48;62.62;101217.28;146613;709;47010;-66
2023/06/06 01:02:20;;;;;;;;;5.75;5.00;;;;;18.36;63.33;101217.81;146615;662;47012;-68
2023/06/06 01:05:33;;;;;;;;;6.00;5.00;;;;;18.24;62.64;101207.88;146622;611;46010;-67
2023/06/06 01:09:01;;;;;;;;;;;;;;;;;;;;;
2023/06/06 01:12:53;;;;;;;;;4.00;4.00;;;;;15.55;63.23;100756.31;146621;611;46021;-68
2023/06/06 01:16:11;;;;;;;;;5.00;4.00;;;;;18.27;63.58;101218.44;146619;608;46916;-67
2023/06/06 01:19:16;;;;;;;;;5.00;4.50;;;;;18.37;62.14;101217.84;146622;704;46010;-67
2023/06/06 01:22:22;;;;;;;;;5.50;5.50;;;;;18.43;61.85;101222.38;146618;677;46012;-66
2023/06/06 01:25:25;;;;;;;;;6.50;4.75;;;;;18.44;62.12;101214.56;146620;608;46021;-67
2023/06/06 01:28:40;;;;;;;;;6.00;4.75;;;;;15.54;61.12;100698.75;146617;565;47917;-69
2023/06/06 01:32:15;;;;;;;;;5.00;4.00;;;;;15.86;61.25;100734.66;146619;599;47012;-69
2023/06/06 01:36:01;;;;;;;;;3.67;3.00;;;;;18.73;61.43;101229.34;146619;566;46016;-67
2023/06/06 01:39:21;;;;;;;;;4.25;3.50;;;;;18.70;61.44;101222.25;146622;602;46010;-67
2023/06/06 01:42:24;;;;;;;;;4.00;4.00;;;;;18.66;61.22;101213.41;146615;564;47016;-65
2023/06/06 01:45:58;;;;;;;;;5.75;5.75;;;;;16.92;60.74;100923.56;146620;569;46020;-67
2023/06/06 01:48:54;;;;;;;;;4.00;4.00;;;;;18.54;61.29;101205.19;146613;597;47019;-66
2023/06/06 01:52:03;;;;;;;;;4.33;4.00;;;;;18.48;61.57;101212.03;146617;597;47010;-67
2023/06/06 01:55:04;;;;;;;;;5.50;5.50;;;;;18.41;61.91;101214.47;146618;600;46012;-67
2023/06/06 01:58:00;;;;;;;;;4.25;4.25;;;;;18.37;61.38;101211.72;146622;573;46020;-67
2023/06/06 02:00:52;;;;;;;;;5.00;5.00;;;;;18.36;61.75;101220.44;146614;639;47014;-66
2023/06/06 02:04:01;;;;;;;;;6.75;5.75;;;;;15.82;61.23;100779.81;146616;589;46010;-68
2023/06/06 02:07:02;;;;;;;;;6.00;4.50;;;;;18.41;61.74;101219.72;146616;687;46030;-67
2023/06/06 02:10:14;;;;;;;;;4.25;4.25;;;;;15.65;61.17;100749.63;146620;564;47010;-66
2023/06/06 02:13:06;;;;;;;;;3.00;3.00;;;;;18.30;61.70;101225.53;146618;662;46016;-64
2023/06/06 02:16:00;;;;;;;;;4.75;4.75;;;;;18.18;62.11;101223.44;146622;563;46020;-65
2023/06/06 02:18:55;;;;;;;;;6.75;5.00;;;;;18.08;63.25;101234.53;146613;582;46017;-65
2023/06/06 02:21:52;;;;;;;;;5.00;4.00;;;;;17.99;63.50;101236.03;146619;564;47010;-65
2023/06/06 02:24:49;;;;;;;;;7.75;6.75;;;;;17.94;63.88;101236.75;146616;653;46917;-65
2023/06/06 02:27:49;;;;;;;;;6.00;4.75;;;;;17.94;62.81;101236.75;146619;658;46010;-66
2023/06/06 02:31:11;;;;;;;;;4.00;4.00;;;;;17.97;63.05;101242.06;146617;629;46016;-64
2023/06/06 02:34:06;;;;;;;;;5.00;5.00;;;;;18.00;62.94;101239.53;146616;645;47010;-66
2023/06/06 02:37:06;;;;;;;;;6.00;5.00;;;;;17.90;63.40;101241.00;146618;590;47012;-65
2023/06/06 02:40:36;;;;;;;;;5.00;5.00;;;;;17.78;63.71;101251.13;146619;620;46021;-66
2023/06/06 02:43:33;;;;;;;;;5.00;5.00;;;;;17.72;63.86;101259.66;146618;628;46032;-66
2023/06/06 02:46:37;;;;;;;;;7.25;6.00;;;;;17.68;64.12;101260.44;146619;720;47021;-65
2023/06/06 02:49:30;;;;;;;;;8.25;6.25;;;;;17.60;64.40;101258.41;146617;608;46016;-66
2023/06/06 02:52:23;;;;;;;;;6.75;5.25;;;;;17.51;64.79;101257.28;146620;593;46012;-65
2023/06/06 02:55:16;;;;;;;;;4.33;4.33;;;;;17.47;64.44;101251.88;146617;590;46017;-67
2023/06/06 02:58:58;;;;;;;;;9.25;6.00;;;;;14.87;63.51;100809.75;146622;693;46010;-66
2023/06/06 03:02:02;;;;;;;;;7.33;5.33;;;;;17.36;64.71;101254.19;146621;573;46016;-65
2023/06/06 03:04:58;;;;;;;;;7.00;4.75;;;;;17.36;64.98;101255.91;146611;648;46020;-66
2023/06/06 03:07:56;;;;;;;;;4.33;3.00;;;;;17.37;64.47;101258.56;146618;628;46016;-64
2023/06/06 03:11:03;;;;;;;;;4.33;4.00;;;;;17.33;63.93;101251.47;146623;665;46020;-65
2023/06/06 03:14:15;;;;;;;;;4.75;4.75;;;;;17.36;63.23;101258.53;146611;565;47012;-66
2023/06/06 03:17:14;;;;;;;;;4.00;4.00;;;;;17.41;63.47;101257.81;146615;605;47010;-66
2023/06/06 03:20:09;;;;;;;;;5.25;5.25;;;;;17.47;63.67;101249.25;146618;624;46916;-64
2023/06/06 03:23:07;;;;;;;;;4.33;4.33;;;;;17.50;62.93;101239.75;146623;621;47011;-64
2023/06/06 03:26:16;;;;;;;;;5.33;4.67;;;;;17.56;62.83;101249.56;146617;700;46016;-64
2023/06/06 03:29:17;;;;;;;;;8.25;6.00;;;;;17.63;62.63;101248.94;146621;593;47010;-64
2023/06/06 03:32:29;;;;;;;;;5.25;5.25;;;;;14.98;61.63;100767.53;146616;579;46014;-64
2023/06/06 03:35:39;;;;;;;;;;;;;;;;;;;;;
2023/06/06 03:38:40;;;;;;;;;7.00;5.00;;;;;17.90;61.94;101251.50;146616;576;46017;-63
2023/06/06 03:41:38;;;;;;;;;7.33;4.67;;;;;17.97;61.63;101249.94;146621;624;46020;-64
2023/06/06 03:44:50;;;;;;;;;5.00;4.00;;;;;18.04;61.39;101259.81;146619;626;46012;-64
2023/06/06 03:47:52;;;;;;;;;6.00;6.00;;;;;18.08;61.08;101250.28;146620;679;46020;-65
2023/06/06 03:50:58;;;;;;;;;7.50;7.50;;;;;18.06;60.81;101249.34;146614;617;47012;-67
2023/06/06 03:53:59;;;;;;;;;7.75;7.75;;;;;17.99;61.55;101254.41;146619;719;46021;-67
2023/06/06 03:57:01;;;;;;;;;6.00;6.00;;;;;17.98;60.90;101250.00;146618;624;46016;-65
2023/06/06 04:00:10;;;;;;;;;6.50;5.25;;;;;17.96;60.95;101254.31;146622;610;47013;-66
2023/06/06 04:03:14;;;;;;;;;5.00;5.00;;;;;17.93;61.92;101258.59;146618;569;46016;-67
2023/06/06 04:06:15;;;;;;;;;5.00;5.00;;;;;17.96;61.61;101249.06;146614;699;46010;-65
2023/06/06 04:09:15;;;;;;;;;4.25;4.25;;;;;18.04;62.27;101253.63;146617;629;47012;-65
2023/06/06 04:12:16;;;;;;;;;5.25;5.25;;;;;18.20;62.55;101253.25;146620;675;46020;-65
2023/06/06 04:15:30;;;;;;;;;6.00;5.25;;;;;18.35;61.71;101256.31;146619;610;46017;-65
2023/06/06 04:18:33;;;;;;;;;4.50;4.50;;;;;18.45;62.18;101239.97;146619;618;46020;-65
2023/06/06 04:21:30;;;;;;;;;5.00;5.00;;;;;18.67;62.47;101238.81;146618;587;46016;-66
2023/06/06 04:24:33;;;;;;;;;5.00;5.00;;;;;16.49;61.05;100827.16;146621;586;46021;-66
2023/06/06 04:27:36;;;;;;;;;7.00;5.75;;;;;19.11;60.01;101246.06;146617;684;46914;-64
2023/06/06 04:30:31;;;;;;;;;6.50;6.50;;;;;19.25;59.39;101249.03;146619;654;45024;-65
2023/06/06 04:33:35;;;;;;;;;7.50;7.25;;;;;19.35;59.56;101249.31;146617;641;46016;-67
2023/06/06 04:36:47;;;;;;;;;5.00;5.00;;;;;19.47;59.26;101251.34;146614;579;47013;-65
2023/06/06 04:39:40;;;;;;;;;7.00;6.00;;;;;19.66;58.96;101257.94;146614;580;46016;-65
2023/06/06 04:42:35;;;;;;;;;5.00;5.00;;;;;19.84;58.01;101261.00;146619;724;47010;-67
2023/06/06 04:45:40;;;;;;;;;5.00;5.00;;;;;17.54;57.04;100819.53;146618;573;46917;-66
2023/06/06 04:48:40;;;;;;;;;6.00;5.00;;;;;20.20;57.58;101253.81;146621;571;46020;-66
2023/06/06 04:51:47;;;;;;;;;7.00;7.00;;;;;20.42;57.35;101261.28;146617;636;47013;-66
2023/06/06 04:54:51;;;;;;;;;6.00;4.00;;;;;20.68;57.41;101253.00;146614;575;46912;-66
2023/06/06 04:57:58;;;;;;;;;5.00;4.33;;;;;20.98;57.96;101261.47;146615;597;46016;-66
2023/06/06 05:00:57;;;;;;;;;5.00;4.00;;;;;21.31;57.22;101262.00;146619;589;47012;-66
2023/06/06 05:03:53;;;;;;;;;6.25;4.00;;;;;21.57;55.96;101265.97;146616;565;46016;-67
2023/06/06 05:07:16;;;;;;;;;6.00;5.00;;;;;21.85;53.04;101263.72;146616;677;47026;-67
2023/06/06 05:10:38;;;;;;;;;6.50;5.00;;;;;22.00;54.04;101277.13;146616;595;46016;-67
2023/06/06 05:13:50;;;;;;;;;6.00;6.00;;;;;22.19;52.71;101272.13;146622;585;46020;-67
2023/06/06 05:16:51;;;;;;;;;8.00;6.00;;;;;22.31;52.68;101281.06;146615;575;46016;-66
2023/06/06 05:20:00;;;;;;;;;9.33;8.00;;;;;19.78;53.69;100817.88;146619;620;47010;-66
2023/06/06 05:23:17;;;;;;;;;;;;;;;;;;;;;
2023/06/06 05:26:12;;;;;;;;;6.00;4.67;;;;;22.89;51.87;101291.37;146622;604;46010;-64
2023/06/06 05:29:27;;;;;;;;;10.00;9.33;;;;;23.09;51.60;101286.31;146620;592;46012;-65
2023/06/06 05:32:23;;;;;;;;;8.75;6.75;;;;;23.35;51.54;101286.53;146621;674;46020;-67
2023/06/06 05:35:15;;;;;;;;;6.67;4.00;;;;;23.56;51.49;101282.28;146616;594;47015;-66
2023/06/06 05:38:27;;;;;;;;;6.33;5.00;;;;;23.74;51.42;101285.97;146614;606;46020;-66
2023/06/06 05:41:25;;;;;;;;;9.67;8.33;;;;;23.94;50.48;101288.72;146618;645;46016;-67
2023/06/06 05:44:17;;;;;;;;;6.00;6.00;;;;;24.13;49.54;101296.75;146620;576;46020;-68
2023/06/06 05:47:33;;;;;;;;;7.00;7.00;;;;;23.08;49.98;101082.62;146615;569;48012;-68
2023/06/06 05:50:48;;;;;;;;;4.67;4.67;;;;;24.44;48.99;101289.84;146620;594;47020;-67
2023/06/06 05:53:58;;;;;;;;;6.00;6.00;;;;;24.55;47.49;101288.13;146617;590;46034;-68
2023/06/06 05:57:05;;;;;;;;;5.00;5.00;;;;;24.65;46.97;101281.94;146619;634;46012;-66
2023/06/06 06:00:00;;;;;;;;;4.67;4.00;;;;;24.78;45.38;101289.94;146619;596;46017;-65
2023/06/06 06:02:55;;;;;;;;;6.67;5.00;;;;;24.80;45.60;101288.19;146623;592;47010;-66
2023/06/06 06:05:48;;;;;;;;;6.00;5.33;;;;;24.82;45.43;101283.75;146619;672;46915;-65
2023/06/06 06:08:44;;;;;;;;;6.00;5.00;;;;;24.87;45.62;101280.22;146617;625;46010;-66
2023/06/06 06:11:38;;;;;;;;;6.67;5.33;;;;;25.00;46.71;101273.16;146617;648;46016;-66
2023/06/06 06:14:31;;;;;;;;;5.00;5.00;;;;;25.13;44.81;101279.38;146624;590;46010;-67
2023/06/06 06:17:23;;;;;;;;;6.00;6.00;;;;;25.19;45.40;101281.16;146617;622;47033;-66
2023/06/06 06:20:19;;;;;;;;;9.00;7.00;;;;;25.26;45.11;101277.59;146623;566;46010;-67
2023/06/06 06:23:11;;;;;;;;;7.00;6.33;;;;;25.33;45.60;101277.63;146618;587;46017;-65
2023/06/06 06:26:03;;;;;;;;;6.67;4.67;;;;;25.34;46.94;101283.81;146619;626;46020;-68
2023/06/06 06:28:55;;;;;;;;;8.00;5.33;;;;;25.33;46.70;101293.53;146620;574;46012;-68
2023/06/06 06:31:49;;;;;;;;;6.33;4.33;;;;;25.31;46.21;101294.41;146619;646;47010;-67
2023/06/06 06:34:44;;;;;;;;;6.00;6.00;;;;;25.28;46.89;101311.22;146617;593;47012;-67
2023/06/06 06:37:41;;;;;;;;;7.33;7.00;;;;;25.22;46.37;101289.12;146618;585;46010;-68
2023/06/06 06:40:34;;;;;;;;;6.00;4.67;;;;;25.18;45.45;101288.22;146613;606;47012;-66
2023/06/06 06:43:37;;;;;;;;;6.00;5.00;;;;;25.16;46.23;101290.00;146618;592;47012;-67
2023/06/06 06:46:42;;;;;;;;;5.00;5.00;;;;;25.13;45.25;101295.28;146615;609;46034;-66
2023/06/06 06:49:59;;;;;;;;;5.33;4.67;;;;;22.64;49.20;100856.75;146621;573;46030;-67
2023/06/06 06:52:55;;;;;;;;;4.00;4.00;;;;;25.18;46.27;101292.66;146615;644;46025;-69
2023/06/06 06:56:02;;;;;;;;;5.33;5.33;;;;;25.25;46.67;101297.97;146622;585;46010;-66
2023/06/06 06:58:57;;;;;;;;;5.00;5.00;;;;;25.28;45.58;101295.31;146618;603;47012;-67
2023/06/06 07:01:55;;;;;;;;;5.33;5.33;;;;;25.21;47.27;101298.84;146619;640;47010;-67
2023/06/06 07:05:09;;;;;;;;;6.33;5.33;;;;;22.71;48.87;100869.16;146619;590;46917;-67
2023/06/06 07:08:15;;;;;;;;;7.00;6.00;;;;;23.65;47.29;101022.91;146703;564;46022;-68
2023/06/06 07:11:10;;;;;;;;;6.67;6.67;;;;;25.23;44.86;101293.53;146620;634;46032;-66
2023/06/06 07:14:17;;;;;;;;;6.00;6.00;;;;;25.25;47.48;101290.00;146624;645;46020;-68
2023/06/06 07:17:20;;;;;;;;;7.00;7.00;;;;;25.36;45.08;101297.97;146614;577;47015;-68
2023/06/06 07:20:18;;;;;;;;;5.00;5.00;;;;;25.50;46.20;101287.31;146622;571;46020;-67
2023/06/06 07:23:15;;;;;;;;;6.00;6.00;;;;;25.65;43.81;101287.31;146620;591;47012;-68
2023/06/06 07:26:17;;;;;;;;;5.33;5.00;;;;;25.73;44.02;101289.94;146623;570;47010;-68
2023/06/06 07:29:18;;;;;;;;;3.67;3.67;;;;;25.81;45.39;101280.22;146619;622;47012;-68
2023/06/06 07:32:14;;;;;;;;;4.67;4.67;;;;;25.94;42.58;101271.31;146621;611;46020;-67
2023/06/06 07:35:20;;;;;;;;;6.00;6.00;;;;;26.02;43.57;101276.63;146614;587;47016;-68
2023/06/06 07:38:19;;;;;;;;;5.00;5.00;;;;;25.97;43.89;101276.63;146625;563;46020;-66
2023/06/06 07:41:14;;;;;;;;;6.00;6.00;;;;;25.95;45.44;101269.53;146702;570;47014;-65
2023/06/06 07:44:17;;;;;;;;;4.00;3.67;;;;;25.94;42.32;101270.44;146617;667;46016;-65
2023/06/06 07:47:17;;;;;;;;;7.00;7.00;;;;;25.92;44.57;101269.53;146618;603;47010;-65
2023/06/06 07:50:28;;;;;;;;;;;;;;;;;;;;;
2023/06/06 07:53:33;;;;;;;;;6.00;4.00;;;;;26.04;44.17;101264.19;146622;682;46010;-65
2023/06/06 07:56:37;;;;;;;;;6.33;5.00;;;;;26.13;43.25;101261.50;146621;597;46915;-66
2023/06/06 07:59:34;;;;;;;;;6.67;4.67;;;;;26.29;42.68;101264.06;146624;580;46020;-66
2023/06/06 08:02:39;;;;;;;;;4.00;4.00;;;;;26.33;46.32;101261.41;146619;583;47012;-65
2023/06/06 08:05:45;;;;;;;;;5.00;5.00;;;;;26.29;45.14;101272.06;146623;611;46010;-66
2023/06/06 08:08:37;;;;;;;;;8.67;5.33;;;;;26.27;46.44;101275.62;146617;609;47012;-66
2023/06/06 08:11:35;;;;;;;;;5.00;4.00;;;;;26.24;47.20;101274.75;146707;565;46022;-65
2023/06/06 08:14:44;;;;;;;;;;;;;;;;;;;;;
2023/06/06 08:17:49;;;;;;;;;4.00;4.00;;;;;26.17;47.85;101288.97;146623;649;47010;-66
2023/06/06 08:21:12;;;;;;;;;3.33;3.33;;;;;26.11;48.73;101278.38;146620;597;47013;-65
2023/06/06 08:24:04;;;;;;;;;4.00;4.00;;;;;26.12;48.44;101273.03;146626;603;46010;-65
2023/06/06 08:27:10;;;;;;;;;7.67;7.67;;;;;26.14;48.90;101268.59;146620;676;46014;-64
2023/06/06 08:30:22;;;;;;;;;;;;;;;;;;;;;
2023/06/06 08:33:19;;;;;;;;;4.33;3.33;;;;;26.18;48.61;101257.06;146619;636;46016;-66
2023/06/06 08:36:26;;;;;;;;;5.00;4.67;;;;;26.23;49.86;101255.25;146623;596;46020;-65
2023/06/06 08:39:24;;;;;;;;;5.00;4.00;;;;;26.23;49.86;101264.97;146619;625;46012;-65
2023/06/06 08:42:22;;;;;;;;;3.67;2.67;;;;;26.18;50.69;101257.06;146623;572;46010;-64
2023/06/06 08:45:23;;;;;;;;;4.33;4.33;;;;;26.17;50.40;101257.06;146618;626;46016;-66
2023/06/06 08:48:26;;;;;;;;;3.00;3.00;;;;;26.13;50.81;101245.53;146625;681;46010;-65
2023/06/06 08:51:46;;;;;;;;;4.00;3.00;;;;;25.76;48.88;101163.34;146622;583;47012;-64
2023/06/06 08:54:42;;;;;;;;;3.67;3.67;;;;;26.27;48.00;101238.41;146623;577;46030;-65
2023/06/06 08:58:00;;;;;;;;;2.00;2.00;;;;;26.37;47.07;101243.66;146618;564;46017;-64
2023/06/06 09:00:55;;;;;;;;;2.00;1.33;;;;;26.35;46.01;101248.97;146618;569;47020;-65
2023/06/06 09:03:59;;;;;;;;;3.67;3.67;;;;;26.33;47.56;101249.91;146619;601;46017;-65
2023/06/06 09:07:12;;;;;;;;;3.00;3.00;;;;;26.21;48.50;101230.47;146623;573;46020;-65
2023/06/06 09:10:16;;;;;;;;;4.00;4.00;;;;;26.35;46.95;101248.09;146617;578;46016;-65
2023/06/06 09:13:18;;;;;;;;;5.67;5.00;;;;;26.34;48.22;101236.59;146622;578;46020;-64
2023/06/06 09:16:21;;;;;;;;;5.00;5.00;;;;;26.38;48.05;101242.75;146619;573;47014;-66
2023/06/06 09:19:32;;;;;;;;;2.00;2.00;;;;;26.36;48.29;101226.84;146622;577;46021;-64
2023/06/06 09:23:00;;;;;;;;;4.00;4.00;;;;;26.44;47.13;101234.75;146619;580;46016;-66
2023/06/06 09:25:55;;;;;;;;;9.00;4.67;;;;;26.45;46.90;101236.53;146625;584;46010;-65
2023/06/06 09:29:27;;;;;;;;;3.00;2.67;;;;;26.49;48.68;101228.56;146618;576;47012;-65
2023/06/06 09:33:01;;;;;;;;;5.33;3.67;;;;;26.53;48.50;101216.13;146618;639;47020;-65
2023/06/06 09:36:08;;;;;;;;;5.67;4.67;;;;;26.59;47.71;101223.19;146617;598;47016;-66
2023/06/06 09:39:19;;;;;;;;;2.67;2.67;;;;;26.60;48.89;101209.84;146624;710;47010;-66
2023/06/06 09:42:43;;;;;;;;;4.33;4.33;;;;;26.61;47.47;101208.97;146617;586;46017;-65
2023/06/06 09:46:14;;;;;;;;;5.00;4.00;;;;;26.64;48.98;101197.44;146622;607;46020;-69
2023/06/06 09:49:17;;;;;;;;;5.00;4.00;;;;;26.54;47.89;101201.91;146619;588;46017;-65
2023/06/06 09:52:19;;;;;;;;;5.00;3.00;;;;;26.48;48.67;101204.62;146622;566;46020;-64
2023/06/06 09:55:23;;;;;;;;;4.00;3.00;;;;;26.45;46.55;101207.28;146615;584;46017;-66
2023/06/06 09:58:23;;;;;;;;;3.00;3.00;;;;;26.28;48.87;101204.72;146625;677;45031;-66
2023/06/06 10:01:21;;;;;;;;;4.33;3.67;;;;;26.16;48.38;101213.63;146619;569;47014;-66
2023/06/06 10:04:25;;;;;;;;;3.33;3.33;;;;;26.15;48.43;101227.81;146624;604;46021;-65
2023/06/06 10:07:50;;;;;;;;;3.67;3.00;;;;;26.13;49.36;101207.47;146619;652;46014;-66
2023/06/06 10:10:59;;;;;;;;;7.00;4.00;;;;;26.18;48.96;101216.31;146621;597;46020;-65
2023/06/06 10:14:06;;;;;;;;;2.00;2.00;;;;;26.18;48.64;101225.16;146618;566;46016;-64
2023/06/06 10:16:50;;;;;;;;;6.00;4.00;;;;;26.15;49.48;101216.31;146707;565;45022;-64
2023/06/06 10:19:50;;;;;;;;;2.67;2.67;;;;;26.20;49.65;101210.09;146619;595;46016;-69
2023/06/06 10:22:46;;;;;;;;;4.00;3.00;;;;;26.33;49.72;101213.56;146619;693;46010;-67
2023/06/06 10:26:00;;;;;;;;;4.00;3.00;;;;;26.40;50.04;101203.75;146621;652;46012;-67
2023/06/06 10:29:31;;;;;;;;;4.00;3.67;;;;;26.39;50.08;101218.84;146624;569;46010;-67
2023/06/06 10:33:07;;;;;;;;;6.33;3.67;;;;;26.47;49.67;101221.44;146616;644;46014;-67
2023/06/06 10:36:21;;;;;;;;;5.33;4.33;;;;;26.49;49.50;101212.59;146625;591;46011;-67
2023/06/06 10:39:47;;;;;;;;;6.33;4.00;;;;;26.43;49.81;101204.62;146618;575;47012;-67
2023/06/06 10:43:04;;;;;;;;;4.67;4.33;;;;;26.25;50.18;101192.31;146622;579;46021;-67
2023/06/06 10:46:04;;;;;;;;;5.00;3.00;;;;;26.37;50.56;101215.28;146621;569;46912;-66
2023/06/06 10:48:58;;;;;;;;;4.67;4.67;;;;;26.40;50.25;101209.09;146704;564;46015;-67
2023/06/06 10:52:08;;;;;;;;;6.00;5.00;;;;;26.39;50.24;101205.56;146619;601;46943;-67
2023/06/06 10:55:49;;;;;;;;;3.00;2.00;;;;;26.34;50.88;101185.19;146620;591;46020;-67
2023/06/06 10:58:53;;;;;;;;;7.00;5.33;;;;;26.37;51.02;101188.72;146618;581;46017;-67
2023/06/06 11:01:57;;;;;;;;;4.33;4.33;;;;;26.40;49.63;101196.66;146622;663;47010;-67
2023/06/06 11:05:14;;;;;;;;;5.33;4.00;;;;;26.44;49.27;101190.44;146619;581;46916;-67
2023/06/06 11:08:20;;;;;;;;;4.00;4.00;;;;;25.92;49.84;101108.37;146621;632;47010;-65
2023/06/06 11:11:35;;;;;;;;;3.67;3.67;;;;;26.32;49.92;101173.69;146615;579;47015;-68
2023/06/06 11:15:05;;;;;;;;;4.67;3.67;;;;;26.35;50.19;101189.59;146618;670;47010;-68
2023/06/06 11:18:13;;;;;;;;;4.00;4.00;;;;;26.34;48.39;101186.06;146617;591;46016;-66
2023/06/06 11:21:17;;;;;;;;;4.67;4.33;;;;;26.26;49.38;101191.44;146618;564;46021;-66
2023/06/06 11:24:23;;;;;;;;;5.00;4.00;;;;;26.24;48.82;101185.25;146617;618;46016;-67
2023/06/06 11:27:34;;;;;;;;;3.67;3.33;;;;;26.24;49.42;101179.06;146618;579;47010;-66
2023/06/06 11:30:53;;;;;;;;;4.00;4.00;;;;;25.93;49.84;101122.53;146618;641;46016;-66
2023/06/06 11:34:20;;;;;;;;;6.00;4.00;;;;;26.27;49.74;101181.69;146621;577;47015;-67
2023/06/06 11:37:36;;;;;;;;;4.67;4.00;;;;;26.06;49.85;101153.47;146616;587;46016;-66
2023/06/06 11:40:45;;;;;;;;;4.00;4.00;;;;;26.22;50.42;101191.47;146619;587;47014;-66
2023/06/06 11:44:02;;;;;;;;;4.33;4.00;;;;;26.13;50.54;101189.72;146616;571;47012;-65
2023/06/06 11:46:57;;;;;;;;;3.67;3.67;;;;;26.11;51.36;101188.88;146621;590;46020;-66
2023/06/06 11:50:32;;;;;;;;;6.00;5.00;;;;;26.08;50.76;101186.22;146616;674;46017;-67
2023/06/06 11:53:35;;;;;;;;;4.00;4.00;;;;;26.09;50.62;101179.13;146624;622;45020;-66
2023/06/06 11:56:56;;;;;;;;;5.33;4.67;;;;;26.11;50.41;101180.03;146614;567;46028;-67
2023/06/06 12:00:18;;;;;;;;;4.67;3.67;;;;;26.09;50.36;101174.69;146623;591;47008;-67
2023/06/06 12:03:35;;;;;;;;;;;;;;;;;;;;;
2023/06/06 12:06:32;;;;;;;;;3.00;3.00;;;;;26.03;50.75;101166.75;146616;604;47010;-65
2023/06/06 12:09:32;;;;;;;;;5.00;5.00;;;;;24.91;50.94;100976.03;146699;564;46022;-66
2023/06/06 12:12:27;;;;;;;;;3.00;3.00;;;;;26.10;51.52;101165.81;146620;597;47013;-67
2023/06/06 12:15:29;;;;;;;;;6.00;5.00;;;;;26.14;51.83;101158.75;146625;627;46020;-65
2023/06/06 12:18:22;;;;;;;;;5.00;4.00;;;;;26.24;52.02;101155.13;146620;580;45016;-66
2023/06/06 12:21:22;;;;;;;;;5.00;4.33;;;;;26.32;50.18;101149.75;146620;636;46021;-66
2023/06/06 12:24:50;;;;;;;;;3.33;2.33;;;;;26.32;51.06;101144.44;146619;646;46016;-67
2023/06/06 12:27:41;;;;;;;;;6.33;4.00;;;;;26.32;50.90;101152.41;146704;572;46014;-65
2023/06/06 12:30:41;;;;;;;;;4.33;3.00;;;;;26.33;49.22;101141.78;146623;607;47012;-66
2023/06/06 12:34:01;;;;;;;;;;;;;;;;;;;;;
2023/06/06 12:37:13;;;;;;;;;5.00;3.00;;;;;26.46;50.29;101130.16;146620;654;46016;-67
2023/06/06 12:40:34;;;;;;;;;4.00;4.00;;;;;26.28;49.46;101085.09;146624;602;47010;-67
2023/06/06 12:43:32;;;;;;;;;5.00;5.00;;;;;26.54;50.04;101147.84;146622;583;46016;-67
2023/06/06 12:46:32;;;;;;;;;4.00;4.00;;;;;26.49;50.23;101132.81;146629;580;46012;-66
2023/06/06 12:49:39;;;;;;;;;1.67;1.33;;;;;26.50;50.19;101136.34;146621;584;47012;-68
2023/06/06 12:52:43;;;;;;;;;5.67;3.00;;;;;26.44;48.18;101123.06;146625;594;47010;-66
2023/06/06 12:55:46;;;;;;;;;2.00;2.00;;;;;26.39;49.64;101131.09;146619;628;46016;-65
2023/06/06 12:59:11;;;;;;;;;5.00;4.00;;;;;26.39;50.34;101133.75;146623;621;47010;-65
2023/06/06 13:02:06;;;;;;;;;5.67;4.67;;;;;26.38;50.40;101129.31;146620;584;46917;-66
2023/06/06 13:05:05;;;;;;;;;3.00;3.00;;;;;26.40;51.06;101116.03;146623;616;46020;-67
2023/06/06 13:07:58;;;;;;;;;3.00;2.67;;;;;26.42;49.10;101127.53;146619;636;46013;-67
2023/06/06 13:11:05;;;;;;;;;4.00;4.00;;;;;26.43;49.68;101113.34;146623;591;46020;-65
2023/06/06 13:13:46;;;;;;;;;4.33;4.33;;;;;26.43;50.80;101118.66;146695;569;47013;-67
2023/06/06 13:16:41;;;;;;;;;3.67;3.67;;;;;26.42;47.61;101109.81;146619;572;46016;-66
2023/06/06 13:19:46;;;;;;;;;4.00;4.00;;;;;26.47;47.69;101107.09;146619;648;47010;-67
2023/06/06 13:22:43;;;;;;;;;3.00;3.00;;;;;26.53;47.58;101107.06;146618;634;46016;-66
2023/06/06 13:25:48;;;;;;;;;3.00;3.00;;;;;26.64;48.01;101107.87;146620;663;46020;-67
2023/06/06 13:28:50;;;;;;;;;5.00;4.00;;;;;26.74;40.81;101107.78;146617;651;46017;-68
2023/06/06 13:31:46;;;;;;;;;3.33;3.33;;;;;26.66;38.93;101111.37;146618;632;47014;-66
2023/06/06 13:34:41;;;;;;;;;4.67;2.67;;;;;26.54;43.34;101108.81;146616;576;47012;-66
2023/06/06 13:37:43;;;;;;;;;4.67;2.00;;;;;26.46;35.82;101092.03;146618;567;46021;-66
2023/06/06 13:40:47;;;;;;;;;2.67;2.33;;;;;25.41;42.91;100903.28;146613;593;47012;-68
2023/06/06 13:43:48;;;;;;;;;4.33;4.00;;;;;26.60;40.14;101087.50;146622;622;46010;-66
2023/06/06 13:46:41;;;;;;;;;4.00;3.67;;;;;26.73;40.16;101080.31;146617;575;47014;-65
2023/06/06 13:49:39;;;;;;;;;4.33;3.33;;;;;26.84;35.37;101072.22;146702;566;46013;-66
2023/06/06 13:52:36;;;;;;;;;3.00;2.00;;;;;26.98;36.91;101072.06;146618;669;47016;-66
2023/06/06 13:55:34;;;;;;;;;3.67;2.33;;;;;27.07;35.87;101079.94;146622;631;46020;-67
2023/06/06 13:58:53;;;;;;;;;2.00;2.00;;;;;27.11;36.05;101065.72;146619;592;47013;-65
2023/06/06 14:01:52;;;;;;;;;5.67;2.00;;;;;27.18;36.96;101075.41;146626;572;46010;-67
2023/06/06 14:05:19;;;;;;;;;4.67;2.33;;;;;27.24;41.75;101074.47;146620;643;46015;-66
2023/06/06 14:09:05;;;;;;;;;5.00;3.00;;;;;27.21;40.44;101063.87;146623;575;46020;-66
2023/06/06 14:12:10;;;;;;;;;3.33;3.00;;;;;27.25;33.01;101068.25;146620;597;46016;-66
2023/06/06 14:15:16;;;;;;;;;3.00;3.00;;;;;27.23;34.34;101064.69;146624;594;46020;-66
2023/06/06 14:18:17;;;;;;;;;4.00;3.33;;;;;27.20;40.23;101062.06;146619;608;47012;-67
2023/06/06 14:21:28;;;;;;;;;2.33;2.33;;;;;27.15;38.27;101055.03;146622;628;46020;-69
2023/06/06 14:24:35;;;;;;;;;2.33;2.33;;;;;27.13;37.82;101051.50;146620;624;46016;-69
2023/06/06 14:27:43;;;;;;;;;3.67;3.67;;;;;27.10;39.84;101051.53;146624;688;46014;-67
2023/06/06 14:30:45;;;;;;;;;2.00;2.00;;;;;27.10;39.34;101051.53;146616;573;46012;-67
2023/06/06 14:33:44;;;;;;;;;3.00;2.00;;;;;27.09;41.49;101046.22;146624;591;46020;-67
2023/06/06 14:36:33;;;;;;;;;3.67;2.67;;;;;27.08;42.00;101049.78;146702;565;47012;-67